createdAt,value
2023-03-16T00:02:19.329Z,18.68
2023-03-16T00:04:47.667Z,18.64
2023-03-16T00:07:15.896Z,18.67
2023-03-16T00:09:43.148Z,18.68
2023-03-16T00:12:15.988Z,18.63
2023-03-16T00:14:48.646Z,18.61
2023-03-16T00:17:20.733Z,18.38
2023-03-16T00:19:51.846Z,18.53
2023-03-16T00:22:19.662Z,18.41
2023-03-16T00:24:46.682Z,18.40
2023-03-16T00:27:15.360Z,18.33
2023-03-16T00:29:48.377Z,18.35
2023-03-16T00:32:19.675Z,18.31
2023-03-16T00:34:48.772Z,18.26
2023-03-16T00:37:17.774Z,18.19
2023-03-16T00:39:47.078Z,18.23
2023-03-16T00:42:16.157Z,18.18
2023-03-16T00:44:43.577Z,18.16
2023-03-16T00:47:14.941Z,18.15
2023-03-16T00:49:43.854Z,18.08
2023-03-16T00:52:15.043Z,17.95
2023-03-16T00:54:47.895Z,17.95
2023-03-16T00:57:19.059Z,17.98
2023-03-16T00:59:52.917Z,17.95
2023-03-16T01:02:37.298Z,17.97
2023-03-16T01:05:29.634Z,17.91
2023-03-16T01:08:31.274Z,17.80
2023-03-16T01:11:18.743Z,17.74
2023-03-16T01:14:19.664Z,17.75
2023-03-16T01:17:19.257Z,17.73
2023-03-16T01:20:02.200Z,17.70
2023-03-16T01:22:30.878Z,17.69
2023-03-16T01:25:06.710Z,17.70
2023-03-16T01:27:39.992Z,17.59
2023-03-16T01:30:16.722Z,17.58
2023-03-16T01:32:56.666Z,17.63
2023-03-16T01:35:25.007Z,17.54
2023-03-16T01:38:13.217Z,17.52
2023-03-16T01:40:56.300Z,17.53
2023-03-16T01:43:35.258Z,17.51
2023-03-16T01:46:08.888Z,17.43
2023-03-16T01:48:53.229Z,17.39
2023-03-16T01:51:53.891Z,17.27
2023-03-16T01:54:37.871Z,17.30
2023-03-16T01:57:17.124Z,17.27
2023-03-16T02:00:09.903Z,17.22
2023-03-16T02:02:56.305Z,17.24
2023-03-16T02:05:38.716Z,17.30
2023-03-16T02:08:08.493Z,17.33
2023-03-16T02:10:37.674Z,17.29
2023-03-16T02:13:05.137Z,17.36
2023-03-16T02:15:32.643Z,17.26
2023-03-16T02:18:00.957Z,17.19
2023-03-16T02:20:52.131Z,17.04
2023-03-16T02:23:21.388Z,17.02
2023-03-16T02:26:34.348Z,16.96
2023-03-16T02:29:23.409Z,16.99
2023-03-16T02:31:52.889Z,17.06
2023-03-16T02:34:20.298Z,17.05
2023-03-16T02:36:49.989Z,17.07
2023-03-16T02:39:20.901Z,17.02
2023-03-16T02:41:48.437Z,17.01
2023-03-16T02:44:29.345Z,17.06
2023-03-16T02:47:03.653Z,16.90
2023-03-16T02:49:45.548Z,16.87
2023-03-16T02:52:12.962Z,16.84
2023-03-16T02:54:40.128Z,16.91
2023-03-16T02:57:09.219Z,16.90
2023-03-16T02:59:36.675Z,16.99
2023-03-16T03:02:04.057Z,16.93
2023-03-16T03:04:33.301Z,16.94
2023-03-16T03:07:04.930Z,16.94
2023-03-16T03:09:43.188Z,16.92
2023-03-16T03:12:11.100Z,16.89
2023-03-16T03:14:38.902Z,16.94
2023-03-16T03:17:10.268Z,17.01
2023-03-16T03:19:37.313Z,17.01
2023-03-16T03:22:06.597Z,16.99
2023-03-16T03:24:35.017Z,16.97
2023-03-16T03:27:06.091Z,17.01
2023-03-16T03:29:36.292Z,16.94
2023-03-16T03:32:05.309Z,16.97
2023-03-16T03:34:33.100Z,16.95
2023-03-16T03:37:01.346Z,16.98
2023-03-16T03:39:29.039Z,17.04
2023-03-16T03:41:57.108Z,17.06
2023-03-16T03:44:25.058Z,17.05
2023-03-16T03:46:53.054Z,17.03
2023-03-16T03:49:20.909Z,17.01
2023-03-16T03:51:52.954Z,16.94
2023-03-16T03:54:25.289Z,16.93
2023-03-16T03:57:12.680Z,16.79
2023-03-16T03:59:43.918Z,16.87
2023-03-16T04:02:14.772Z,16.85
2023-03-16T04:04:50.137Z,16.78
2023-03-16T04:07:20.354Z,16.72
2023-03-16T04:09:49.388Z,16.68
2023-03-16T04:12:24.594Z,16.59
2023-03-16T04:14:52.682Z,16.62
2023-03-16T04:17:21.210Z,16.62
2023-03-16T04:19:50.678Z,16.52
2023-03-16T04:22:18.545Z,16.46
2023-03-16T04:24:47.004Z,16.44
2023-03-16T04:27:14.822Z,16.37
2023-03-16T04:29:42.177Z,16.32
2023-03-16T04:32:09.511Z,16.32
2023-03-16T04:34:38.631Z,16.31
2023-03-16T04:37:06.974Z,16.35
2023-03-16T04:39:36.857Z,16.27
2023-03-16T04:42:04.006Z,16.35
2023-03-16T04:44:34.432Z,16.30
2023-03-16T04:47:01.789Z,16.27
2023-03-16T04:49:36.587Z,16.15
2023-03-16T04:52:04.847Z,16.19
2023-03-16T04:54:33.396Z,16.10
2023-03-16T04:57:01.343Z,16.18
2023-03-16T04:59:34.838Z,16.15
2023-03-16T05:02:10.027Z,16.14
2023-03-16T05:04:37.731Z,16.16
2023-03-16T05:07:06.975Z,16.15
2023-03-16T05:09:39.187Z,16.17
2023-03-16T05:12:07.350Z,16.16
2023-03-16T05:14:36.584Z,16.10
2023-03-16T05:17:19.893Z,16.14
2023-03-16T05:19:47.415Z,16.10
2023-03-16T05:22:16.936Z,16.17
2023-03-16T05:25:07.402Z,16.08
2023-03-16T05:27:35.434Z,16.14
2023-03-16T05:30:05.118Z,16.04
2023-03-16T05:32:33.716Z,16.05
2023-03-16T05:35:00.868Z,16.07
2023-03-16T05:37:28.093Z,16.09
2023-03-16T05:39:55.069Z,16.06
2023-03-16T05:42:22.253Z,16.07
2023-03-16T05:44:55.127Z,16.03
2023-03-16T05:47:37.479Z,16.10
2023-03-16T05:50:11.378Z,16.07
2023-03-16T05:52:42.348Z,16.02
2023-03-16T05:55:17.575Z,16.00
2023-03-16T05:57:49.459Z,16.03
2023-03-16T06:00:19.829Z,15.96
2023-03-16T06:02:54.914Z,15.93
2023-03-16T06:05:26.425Z,15.94
2023-03-16T06:07:53.714Z,15.90
2023-03-16T06:10:21.346Z,15.89
2023-03-16T06:12:48.561Z,15.84
2023-03-16T06:15:15.681Z,15.90
2023-03-16T06:17:42.858Z,15.79
2023-03-16T06:20:13.338Z,15.81
2023-03-16T06:22:43.165Z,15.90
2023-03-16T06:25:12.797Z,15.87
2023-03-16T06:27:41.647Z,15.89
2023-03-16T06:30:15.093Z,15.85
2023-03-16T06:32:43.129Z,15.89
2023-03-16T06:35:11.594Z,15.87
2023-03-16T06:37:43.368Z,15.81
2023-03-16T06:40:39.712Z,15.69
2023-03-16T06:43:07.192Z,15.75
2023-03-16T06:45:34.241Z,15.80
2023-03-16T06:48:01.578Z,15.78
2023-03-16T06:50:29.464Z,15.81
2023-03-16T06:52:56.822Z,15.84
2023-03-16T06:55:23.985Z,15.78
2023-03-16T06:57:51.012Z,15.74
2023-03-16T07:00:19.364Z,15.80
2023-03-16T07:02:46.447Z,15.85
2023-03-16T07:05:18.135Z,15.85
2023-03-16T07:07:47.170Z,15.91
2023-03-16T07:10:17.864Z,15.83
2023-03-16T07:12:46.083Z,15.96
2023-03-16T07:15:14.014Z,16.05
2023-03-16T07:17:42.762Z,16.07
2023-03-16T07:20:11.668Z,16.11
2023-03-16T07:22:40.435Z,16.26
2023-03-16T07:25:11.643Z,16.25
2023-03-16T07:27:45.700Z,16.33
2023-03-16T07:30:16.418Z,16.22
2023-03-16T07:32:46.387Z,16.17
2023-03-16T07:35:14.659Z,16.21
2023-03-16T07:37:42.228Z,16.17
2023-03-16T07:40:10.881Z,16.22
2023-03-16T07:42:38.521Z,16.28
2023-03-16T07:45:10.570Z,16.32
2023-03-16T07:47:38.208Z,16.33
2023-03-16T07:50:27.850Z,16.36
2023-03-16T07:52:55.942Z,16.42
2023-03-16T07:55:22.967Z,16.44
2023-03-16T07:57:51.965Z,16.53
2023-03-16T08:00:26.561Z,16.58
2023-03-16T08:02:55.374Z,16.64
2023-03-16T08:05:22.648Z,16.79
2023-03-16T08:07:57.502Z,16.86
2023-03-16T08:10:28.418Z,16.90
2023-03-16T08:13:05.059Z,16.92
2023-03-16T08:15:34.123Z,17.11
2023-03-16T08:18:08.820Z,17.27
2023-03-16T08:20:36.254Z,17.46
2023-03-16T08:23:05.763Z,17.73
2023-03-16T08:25:38.981Z,17.96
2023-03-16T08:28:16.168Z,18.24
2023-03-16T08:30:48.950Z,18.34
2023-03-16T08:33:38.820Z,18.85
2023-03-16T08:36:08.776Z,19.20
2023-03-16T08:38:36.226Z,19.58
2023-03-16T08:41:08.577Z,19.79
2023-03-16T08:43:37.648Z,20.14
2023-03-16T08:46:05.734Z,20.39
2023-03-16T08:48:46.724Z,20.52
2023-03-16T08:51:15.011Z,20.70
2023-03-16T08:53:44.164Z,20.57
2023-03-16T08:56:13.750Z,21.01
2023-03-16T08:58:45.717Z,21.17
2023-03-16T09:01:15.644Z,21.40
2023-03-16T09:03:45.884Z,21.13
2023-03-16T09:06:15.657Z,21.01
2023-03-16T09:08:45.574Z,21.23
2023-03-16T09:11:14.984Z,21.49
2023-03-16T09:13:45.586Z,21.50
2023-03-16T09:16:15.979Z,21.69
2023-03-16T09:18:43.694Z,21.89
2023-03-16T09:21:14.301Z,22.13
2023-03-16T09:23:43.260Z,22.63
2023-03-16T09:26:12.988Z,21.97
2023-03-16T09:28:42.541Z,22.25
2023-03-16T09:31:23.234Z,22.59
2023-03-16T09:33:50.501Z,23.00
2023-03-16T09:36:17.826Z,23.33
2023-03-16T09:38:45.159Z,23.32
2023-03-16T09:41:36.987Z,23.52
2023-03-16T09:44:18.145Z,23.75
2023-03-16T09:46:49.169Z,23.68
2023-03-16T09:49:21.217Z,23.89
2023-03-16T09:52:00.548Z,23.86
2023-03-16T09:54:48.484Z,23.72
2023-03-16T09:57:26.544Z,24.02
2023-03-16T09:59:55.172Z,24.02
2023-03-16T10:02:47.371Z,23.81
2023-03-16T10:05:17.378Z,24.24
2023-03-16T10:08:06.006Z,23.94
2023-03-16T10:11:01.155Z,24.08
2023-03-16T10:13:28.243Z,23.90
2023-03-16T10:15:59.830Z,23.75
2023-03-16T10:18:33.342Z,23.15
2023-03-16T10:21:00.645Z,23.56
2023-03-16T10:23:27.701Z,23.76
2023-03-16T10:25:56.160Z,23.36
2023-03-16T10:28:28.747Z,23.62
2023-03-16T10:31:00.134Z,23.84
2023-03-16T10:33:30.424Z,23.65
2023-03-16T10:36:05.846Z,24.34
2023-03-16T10:38:50.700Z,23.75
2023-03-16T10:41:23.127Z,24.21
2023-03-16T10:44:07.750Z,24.38
2023-03-16T10:46:40.949Z,24.80
2023-03-16T10:49:43.711Z,24.06
2023-03-16T10:52:23.705Z,24.25
2023-03-16T10:55:01.970Z,23.87
2023-03-16T10:57:42.928Z,24.04
2023-03-16T11:00:24.980Z,24.40
2023-03-16T11:02:57.265Z,24.05
2023-03-16T11:05:33.940Z,24.18
2023-03-16T11:08:10.535Z,24.44
2023-03-16T11:10:49.394Z,24.80
2023-03-16T11:13:21.963Z,25.30
2023-03-16T11:16:07.831Z,25.66
2023-03-16T11:18:59.654Z,25.53
2023-03-16T11:22:06.670Z,25.14
2023-03-16T11:25:11.055Z,24.90
2023-03-16T11:28:05.501Z,24.81
2023-03-16T11:30:46.390Z,23.88
2023-03-16T11:33:15.557Z,24.62
2023-03-16T11:35:56.429Z,24.57
2023-03-16T11:38:37.851Z,24.97
2023-03-16T11:41:50.760Z,25.11
2023-03-16T11:44:20.494Z,25.74
2023-03-16T11:47:08.470Z,25.53
2023-03-16T11:49:48.204Z,24.62
2023-03-16T11:52:33.531Z,24.31
2023-03-16T11:55:29.009Z,24.89
2023-03-16T11:58:17.473Z,25.22
2023-03-16T12:01:16.631Z,25.53
2023-03-16T12:04:21.566Z,25.61
2023-03-16T12:07:13.672Z,25.67
2023-03-16T12:09:44.737Z,25.07
2023-03-16T12:12:47.925Z,24.97
2023-03-16T12:16:07.880Z,25.64
2023-03-16T12:18:47.999Z,25.99
2023-03-16T12:21:23.167Z,26.19
2023-03-16T12:23:50.250Z,25.99
2023-03-16T12:26:19.795Z,26.70
2023-03-16T12:28:48.686Z,25.98
2023-03-16T12:31:47.048Z,26.53
2023-03-16T12:34:20.352Z,26.76
2023-03-16T12:37:15.107Z,26.89
2023-03-16T12:40:09.388Z,26.85
2023-03-16T12:42:49.088Z,26.96
2023-03-16T12:45:51.995Z,26.79
2023-03-16T12:48:30.133Z,26.76
2023-03-16T12:51:00.546Z,27.00
2023-03-16T12:53:47.119Z,26.99
2023-03-16T12:56:18.090Z,27.19
2023-03-16T12:58:50.831Z,26.79
2023-03-16T13:01:21.964Z,26.01
2023-03-16T13:03:51.211Z,25.99
2023-03-16T13:06:24.519Z,25.50
2023-03-16T13:09:00.031Z,26.11
2023-03-16T13:11:28.833Z,26.41
2023-03-16T13:14:01.930Z,26.39
2023-03-16T13:16:32.212Z,26.85
2023-03-16T13:19:01.023Z,26.67
2023-03-16T13:21:40.381Z,26.17
2023-03-16T13:24:14.012Z,26.78
2023-03-16T13:26:53.927Z,26.47
2023-03-16T13:29:33.489Z,26.44
2023-03-16T13:32:06.587Z,26.55
2023-03-16T13:34:45.079Z,27.21
2023-03-16T13:37:16.870Z,26.91
2023-03-16T13:39:55.238Z,27.25
2023-03-16T13:42:24.653Z,27.64
2023-03-16T13:44:57.834Z,25.81
2023-03-16T13:47:29.277Z,25.53
2023-03-16T13:50:00.891Z,25.62
2023-03-16T13:52:36.999Z,25.19
2023-03-16T13:55:15.618Z,26.29
2023-03-16T13:57:45.566Z,26.38
2023-03-16T14:00:19.035Z,26.43
2023-03-16T14:02:47.737Z,26.16
2023-03-16T14:05:22.859Z,26.54
2023-03-16T14:07:52.966Z,26.58
2023-03-16T14:10:21.862Z,26.51
2023-03-16T14:13:10.909Z,26.27
2023-03-16T14:15:39.022Z,26.01
2023-03-16T14:18:22.831Z,25.95
2023-03-16T14:20:55.504Z,25.82
2023-03-16T14:23:37.307Z,25.09
2023-03-16T14:26:12.852Z,24.70
2023-03-16T14:28:40.222Z,23.88
2023-03-16T14:31:13.520Z,23.44
2023-03-16T14:33:43.932Z,23.46
2023-03-16T14:36:17.728Z,22.59
2023-03-16T14:38:49.146Z,22.79
2023-03-16T14:41:24.656Z,23.03
2023-03-16T14:43:59.765Z,23.00
2023-03-16T14:46:37.793Z,22.99
2023-03-16T14:49:20.767Z,23.16
2023-03-16T14:51:50.555Z,22.81
2023-03-16T14:54:22.022Z,22.07
2023-03-16T14:56:55.004Z,22.51
2023-03-16T14:59:22.609Z,22.77
2023-03-16T15:01:51.003Z,22.59
2023-03-16T15:04:25.335Z,22.61
2023-03-16T15:06:52.640Z,22.31
2023-03-16T15:09:38.301Z,22.13
2023-03-16T15:12:14.585Z,21.78
2023-03-16T15:15:00.135Z,21.33
2023-03-16T15:17:27.802Z,21.57
2023-03-16T15:19:55.266Z,21.25
2023-03-16T15:22:37.707Z,20.67
2023-03-16T15:25:23.185Z,20.56
2023-03-16T15:27:51.491Z,21.16
2023-03-16T15:30:28.867Z,21.55
2023-03-16T15:32:56.834Z,21.70
2023-03-16T15:35:27.914Z,21.31
2023-03-16T15:37:55.241Z,21.63
2023-03-16T15:40:29.783Z,21.69
2023-03-16T15:42:57.896Z,21.66
2023-03-16T15:45:25.781Z,21.68
2023-03-16T15:47:54.023Z,21.32
2023-03-16T15:50:24.845Z,21.23
2023-03-16T15:53:09.072Z,21.16
2023-03-16T15:55:42.107Z,20.99
2023-03-16T15:58:24.527Z,21.17
2023-03-16T16:00:55.923Z,21.15
2023-03-16T16:03:28.049Z,21.03
2023-03-16T16:05:55.849Z,21.24
2023-03-16T16:08:23.077Z,20.96
2023-03-16T16:10:51.828Z,21.10
2023-03-16T16:13:44.304Z,21.13
2023-03-16T16:16:18.150Z,20.83
2023-03-16T16:18:47.748Z,21.00
2023-03-16T16:21:18.161Z,21.21
2023-03-16T16:23:46.320Z,20.60
2023-03-16T16:26:18.983Z,20.41
2023-03-16T16:28:47.825Z,20.79
2023-03-16T16:31:15.113Z,20.62
2023-03-16T16:33:42.189Z,20.63
2023-03-16T16:36:19.296Z,20.67
2023-03-16T16:38:47.880Z,20.55
2023-03-16T16:41:28.514Z,20.44
2023-03-16T16:43:56.521Z,20.58
2023-03-16T16:46:28.847Z,20.46
2023-03-16T16:49:07.336Z,20.67
2023-03-16T16:51:34.666Z,20.41
2023-03-16T16:54:02.392Z,20.52
2023-03-16T16:56:32.659Z,20.31
2023-03-16T16:59:11.170Z,20.09
2023-03-16T17:01:39.199Z,19.73
2023-03-16T17:04:13.618Z,19.97
2023-03-16T17:06:41.615Z,19.77
2023-03-16T17:09:09.995Z,19.64
2023-03-16T17:11:37.770Z,19.90
2023-03-16T17:14:07.908Z,19.92
2023-03-16T17:16:38.146Z,19.62
2023-03-16T17:19:14.859Z,19.54
2023-03-16T17:21:42.200Z,19.63
2023-03-16T17:24:09.486Z,19.71
2023-03-16T17:26:42.974Z,19.60
2023-03-16T17:29:31.956Z,19.49
2023-03-16T17:32:08.695Z,19.52
2023-03-16T17:34:36.103Z,19.10
2023-03-16T17:37:03.054Z,18.88
2023-03-16T17:39:32.912Z,19.03
2023-03-16T17:42:02.830Z,19.19
2023-03-16T17:44:53.507Z,19.10
2023-03-16T17:47:23.242Z,19.44
2023-03-16T17:49:51.567Z,19.50
2023-03-16T17:52:23.534Z,19.65
2023-03-16T17:54:54.189Z,19.46
2023-03-16T17:57:33.740Z,19.08
2023-03-16T18:00:02.586Z,19.33
2023-03-16T18:02:47.316Z,19.45
2023-03-16T18:05:25.510Z,19.28
2023-03-16T18:07:53.931Z,19.01
2023-03-16T18:10:27.596Z,19.21
2023-03-16T18:13:09.038Z,19.41
2023-03-16T18:15:41.813Z,19.42
2023-03-16T18:18:18.161Z,19.45
2023-03-16T18:20:46.213Z,19.58
2023-03-16T18:23:33.854Z,19.47
2023-03-16T18:26:04.092Z,19.50
2023-03-16T18:28:32.283Z,19.37
2023-03-16T18:31:09.357Z,19.47
2023-03-16T18:33:39.664Z,19.52
2023-03-16T18:36:16.174Z,19.13
2023-03-16T18:38:47.085Z,19.38
2023-03-16T18:41:18.814Z,19.38
2023-03-16T18:43:47.334Z,19.41
2023-03-16T18:46:24.277Z,19.50
2023-03-16T18:48:54.093Z,19.35
2023-03-16T18:51:30.173Z,19.51
2023-03-16T18:53:57.828Z,19.17
2023-03-16T18:56:27.320Z,19.41
2023-03-16T18:58:56.313Z,19.31
2023-03-16T19:01:33.401Z,19.16
2023-03-16T19:04:02.282Z,19.33
2023-03-16T19:06:35.063Z,19.26
2023-03-16T19:09:15.011Z,19.34
2023-03-16T19:11:44.243Z,19.34
2023-03-16T19:14:20.228Z,19.26
2023-03-16T19:16:48.671Z,19.27
2023-03-16T19:19:15.938Z,19.27
2023-03-16T19:21:44.170Z,19.45
2023-03-16T19:24:30.987Z,19.38
2023-03-16T19:26:58.856Z,19.39
2023-03-16T19:29:34.542Z,19.31
2023-03-16T19:32:02.685Z,19.35
2023-03-16T19:34:30.025Z,19.30
2023-03-16T19:36:58.719Z,19.34
2023-03-16T19:39:28.063Z,19.30
2023-03-16T19:42:01.672Z,19.24
2023-03-16T19:44:29.401Z,19.23
2023-03-16T19:46:57.088Z,19.17
2023-03-16T19:49:27.397Z,19.27
2023-03-16T19:51:56.022Z,19.25
2023-03-16T19:54:27.371Z,19.28
2023-03-16T19:56:56.410Z,19.33
2023-03-16T19:59:27.115Z,19.34
2023-03-16T20:01:54.182Z,19.26
2023-03-16T20:04:24.024Z,19.21
2023-03-16T20:06:52.273Z,19.37
2023-03-16T20:09:19.978Z,19.37
2023-03-16T20:11:48.921Z,19.19
2023-03-16T20:14:31.072Z,19.26
2023-03-16T20:17:01.302Z,19.25
2023-03-16T20:19:29.217Z,19.33
2023-03-16T20:21:56.721Z,19.34
2023-03-16T20:24:29.308Z,19.34
2023-03-16T20:26:56.952Z,19.37
2023-03-16T20:29:31.406Z,19.33
2023-03-16T20:32:00.234Z,19.12
2023-03-16T20:34:31.398Z,19.28
2023-03-16T20:36:59.759Z,19.17
2023-03-16T20:39:28.477Z,19.23
2023-03-16T20:41:57.456Z,19.28
2023-03-16T20:44:25.590Z,19.12
2023-03-16T20:46:52.765Z,19.26
2023-03-16T20:49:22.904Z,19.28
2023-03-16T20:51:51.634Z,19.28
2023-03-16T20:54:19.407Z,19.22
2023-03-16T20:56:47.074Z,19.11
2023-03-16T20:59:20.515Z,19.14
2023-03-16T21:01:48.198Z,19.16
2023-03-16T21:04:21.094Z,19.23
2023-03-16T21:06:51.543Z,19.19
2023-03-16T21:09:20.222Z,19.25
2023-03-16T21:11:48.196Z,19.32
2023-03-16T21:14:22.218Z,19.25
2023-03-16T21:16:50.204Z,19.24
2023-03-16T21:19:20.897Z,19.16
2023-03-16T21:21:48.092Z,19.27
2023-03-16T21:24:16.213Z,19.21
2023-03-16T21:26:44.934Z,19.33
2023-03-16T21:29:16.549Z,19.27
2023-03-16T21:31:44.015Z,19.26
2023-03-16T21:34:30.870Z,19.27
2023-03-16T21:37:00.335Z,19.35
2023-03-16T21:39:29.714Z,19.32
2023-03-16T21:41:56.756Z,19.36
2023-03-16T21:44:23.992Z,19.36
2023-03-16T21:46:51.265Z,19.38
2023-03-16T21:49:21.096Z,19.33
2023-03-16T21:51:50.493Z,19.35
2023-03-16T21:54:19.372Z,19.32
2023-03-16T21:56:48.076Z,19.16
2023-03-16T21:59:15.788Z,19.29
2023-03-16T22:02:00.426Z,19.27
2023-03-16T22:04:28.906Z,19.35
2023-03-16T22:06:55.972Z,19.32
2023-03-16T22:09:25.115Z,19.29
2023-03-16T22:11:52.415Z,19.33
2023-03-16T22:14:19.576Z,19.23
2023-03-16T22:16:46.897Z,19.16
2023-03-16T22:19:14.835Z,19.37
2023-03-16T22:21:44.440Z,19.37
2023-03-16T22:24:18.165Z,19.25
2023-03-16T22:26:46.531Z,19.34
2023-03-16T22:29:25.504Z,19.33
2023-03-16T22:32:07.062Z,19.09
2023-03-16T22:34:49.941Z,19.20
2023-03-16T22:37:24.338Z,19.12
2023-03-16T22:39:51.941Z,19.20
2023-03-16T22:42:39.527Z,19.16
2023-03-16T22:45:27.758Z,19.20
2023-03-16T22:47:56.704Z,19.20
2023-03-16T22:50:26.808Z,19.16
2023-03-16T22:52:58.125Z,19.24
2023-03-16T22:55:30.638Z,19.18
2023-03-16T22:58:27.368Z,19.25
2023-03-16T23:00:55.329Z,19.17
2023-03-16T23:03:23.961Z,19.26
2023-03-16T23:05:53.168Z,19.29
2023-03-16T23:08:23.531Z,19.28
2023-03-16T23:10:54.587Z,19.33
2023-03-16T23:13:25.336Z,19.25
2023-03-16T23:15:53.659Z,19.33
2023-03-16T23:18:24.272Z,19.33
2023-03-16T23:20:52.800Z,19.29
2023-03-16T23:23:20.397Z,19.30
2023-03-16T23:25:48.377Z,19.32
2023-03-16T23:28:23.232Z,19.21
2023-03-16T23:30:50.794Z,19.28
2023-03-16T23:33:17.991Z,19.16
2023-03-16T23:35:46.904Z,19.26
2023-03-16T23:38:14.811Z,19.13
2023-03-16T23:40:41.953Z,19.27
2023-03-16T23:43:09.356Z,19.32
2023-03-16T23:45:46.171Z,19.29
2023-03-16T23:48:19.574Z,19.36
2023-03-16T23:50:50.183Z,19.20
2023-03-16T23:53:19.143Z,19.29
2023-03-16T23:55:48.849Z,19.30
2023-03-16T23:58:16.763Z,19.28
